sensor_id;sensor_type;location;lat;lon;timestamp;temperature;humidity
39503;DHT22;26970;49.900;10.774;2024-03-08T00:00:14;1.30;99.90
39503;DHT22;26970;49.900;10.774;2024-03-08T00:02:40;1.30;99.90
39503;DHT22;26970;49.900;10.774;2024-03-08T00:05:06;1.30;99.90
39503;DHT22;26970;49.900;10.774;2024-03-08T00:07:42;1.30;99.90
39503;DHT22;26970;49.900;10.774;2024-03-08T00:10:12;1.30;99.90
39503;DHT22;26970;49.900;10.774;2024-03-08T00:12:38;1.30;99.90
39503;DHT22;26970;49.900;10.774;2024-03-08T00:15:10;1.30;99.90
39503;DHT22;26970;49.900;10.774;2024-03-08T00:17:37;1.30;99.90
39503;DHT22;26970;49.900;10.774;2024-03-08T00:20:03;1.30;99.90
39503;DHT22;26970;49.900;10.774;2024-03-08T00:22:40;1.20;99.90
39503;DHT22;26970;49.900;10.774;2024-03-08T00:25:07;1.30;99.90
39503;DHT22;26970;49.900;10.774;2024-03-08T00:27:36;1.20;99.90
39503;DHT22;26970;49.900;10.774;2024-03-08T00:30:02;1.30;99.90
39503;DHT22;26970;49.900;10.774;2024-03-08T00:32:27;1.30;99.90
39503;DHT22;26970;49.900;10.774;2024-03-08T00:34:54;1.20;99.90
39503;DHT22;26970;49.900;10.774;2024-03-08T00:37:20;1.20;99.90
39503;DHT22;26970;49.900;10.774;2024-03-08T00:39:47;1.20;99.90
39503;DHT22;26970;49.900;10.774;2024-03-08T00:42:13;1.20;99.90
39503;DHT22;26970;49.900;10.774;2024-03-08T00:44:39;1.20;99.90
39503;DHT22;26970;49.900;10.774;2024-03-08T00:47:05;1.20;99.90
39503;DHT22;26970;49.900;10.774;2024-03-08T00:49:31;1.10;99.90
39503;DHT22;26970;49.900;10.774;2024-03-08T00:51:56;1.10;99.90
39503;DHT22;26970;49.900;10.774;2024-03-08T00:54:22;1.10;99.90
39503;DHT22;26970;49.900;10.774;2024-03-08T00:56:47;1.00;99.90
39503;DHT22;26970;49.900;10.774;2024-03-08T00:59:13;1.10;99.90
39503;DHT22;26970;49.900;10.774;2024-03-08T01:01:40;1.00;99.90
39503;DHT22;26970;49.900;10.774;2024-03-08T01:04:06;1.10;99.90
39503;DHT22;26970;49.900;10.774;2024-03-08T01:06:33;1.00;99.90
39503;DHT22;26970;49.900;10.774;2024-03-08T01:08:59;1.00;99.90
39503;DHT22;26970;49.900;10.774;2024-03-08T01:11:24;1.00;99.90
39503;DHT22;26970;49.900;10.774;2024-03-08T01:13:50;1.00;99.90
39503;DHT22;26970;49.900;10.774;2024-03-08T01:16:15;1.00;99.90
39503;DHT22;26970;49.900;10.774;2024-03-08T01:18:43;1.00;99.90
39503;DHT22;26970;49.900;10.774;2024-03-08T01:21:08;0.90;99.90
39503;DHT22;26970;49.900;10.774;2024-03-08T01:23:34;0.90;99.90
39503;DHT22;26970;49.900;10.774;2024-03-08T01:26:00;0.90;99.90
39503;DHT22;26970;49.900;10.774;2024-03-08T01:28:27;1.00;99.90
39503;DHT22;26970;49.900;10.774;2024-03-08T01:30:53;1.00;99.90
39503;DHT22;26970;49.900;10.774;2024-03-08T01:33:24;0.90;99.90
39503;DHT22;26970;49.900;10.774;2024-03-08T01:35:51;0.90;99.90
39503;DHT22;26970;49.900;10.774;2024-03-08T01:38:18;0.80;99.90
39503;DHT22;26970;49.900;10.774;2024-03-08T01:40:44;0.90;99.90
39503;DHT22;26970;49.900;10.774;2024-03-08T01:43:35;0.90;99.90
39503;DHT22;26970;49.900;10.774;2024-03-08T01:46:01;0.90;99.90
39503;DHT22;26970;49.900;10.774;2024-03-08T01:48:30;0.90;99.90
39503;DHT22;26970;49.900;10.774;2024-03-08T01:50:58;0.90;99.90
39503;DHT22;26970;49.900;10.774;2024-03-08T01:53:26;0.90;99.90
39503;DHT22;26970;49.900;10.774;2024-03-08T01:55:56;0.80;99.90
39503;DHT22;26970;49.900;10.774;2024-03-08T01:58:23;0.90;99.90
39503;DHT22;26970;49.900;10.774;2024-03-08T02:00:49;0.80;99.90
39503;DHT22;26970;49.900;10.774;2024-03-08T02:03:18;0.80;99.90
39503;DHT22;26970;49.900;10.774;2024-03-08T02:05:43;0.80;99.90
39503;DHT22;26970;49.900;10.774;2024-03-08T02:08:09;0.80;99.90
39503;DHT22;26970;49.900;10.774;2024-03-08T02:10:40;0.80;99.90
39503;DHT22;26970;49.900;10.774;2024-03-08T02:13:07;0.80;99.90
39503;DHT22;26970;49.900;10.774;2024-03-08T02:18:18;0.80;99.90
39503;DHT22;26970;49.900;10.774;2024-03-08T02:20:45;0.70;99.90
39503;DHT22;26970;49.900;10.774;2024-03-08T02:23:13;0.70;99.90
39503;DHT22;26970;49.900;10.774;2024-03-08T02:25:39;0.70;99.90
39503;DHT22;26970;49.900;10.774;2024-03-08T02:28:05;0.70;99.90
39503;DHT22;26970;49.900;10.774;2024-03-08T02:30:30;0.60;99.90
39503;DHT22;26970;49.900;10.774;2024-03-08T02:32:56;0.60;99.90
39503;DHT22;26970;49.900;10.774;2024-03-08T02:35:22;0.60;99.90
39503;DHT22;26970;49.900;10.774;2024-03-08T02:37:47;0.60;99.90
39503;DHT22;26970;49.900;10.774;2024-03-08T02:40:13;0.60;99.90
39503;DHT22;26970;49.900;10.774;2024-03-08T02:42:39;0.50;99.90
39503;DHT22;26970;49.900;10.774;2024-03-08T02:45:05;0.50;99.90
39503;DHT22;26970;49.900;10.774;2024-03-08T02:47:31;0.50;99.90
39503;DHT22;26970;49.900;10.774;2024-03-08T02:49:57;0.50;99.90
39503;DHT22;26970;49.900;10.774;2024-03-08T02:52:22;0.50;99.90
39503;DHT22;26970;49.900;10.774;2024-03-08T02:54:48;0.50;99.90
39503;DHT22;26970;49.900;10.774;2024-03-08T02:57:14;0.50;99.90
39503;DHT22;26970;49.900;10.774;2024-03-08T02:59:40;0.50;99.90
39503;DHT22;26970;49.900;10.774;2024-03-08T03:02:06;0.50;99.90
39503;DHT22;26970;49.900;10.774;2024-03-08T03:04:32;0.50;99.90
39503;DHT22;26970;49.900;10.774;2024-03-08T03:07:00;0.40;99.90
39503;DHT22;26970;49.900;10.774;2024-03-08T03:09:26;0.50;99.90
39503;DHT22;26970;49.900;10.774;2024-03-08T03:11:53;0.40;99.90
39503;DHT22;26970;49.900;10.774;2024-03-08T03:14:21;0.40;99.90
39503;DHT22;26970;49.900;10.774;2024-03-08T03:16:46;0.40;99.90
39503;DHT22;26970;49.900;10.774;2024-03-08T03:19:12;0.30;99.90
39503;DHT22;26970;49.900;10.774;2024-03-08T03:21:37;0.30;99.90
39503;DHT22;26970;49.900;10.774;2024-03-08T03:24:04;0.30;99.90
39503;DHT22;26970;49.900;10.774;2024-03-08T03:26:38;0.20;99.90
39503;DHT22;26970;49.900;10.774;2024-03-08T03:29:07;0.20;99.90
39503;DHT22;26970;49.900;10.774;2024-03-08T03:31:34;0.20;99.90
39503;DHT22;26970;49.900;10.774;2024-03-08T03:34:00;0.10;99.90
39503;DHT22;26970;49.900;10.774;2024-03-08T03:36:29;0.10;99.90
39503;DHT22;26970;49.900;10.774;2024-03-08T03:38:55;0.10;99.90
39503;DHT22;26970;49.900;10.774;2024-03-08T03:41:31;0.20;99.90
39503;DHT22;26970;49.900;10.774;2024-03-08T03:43:56;0.20;99.90
39503;DHT22;26970;49.900;10.774;2024-03-08T03:46:22;0.20;99.90
39503;DHT22;26970;49.900;10.774;2024-03-08T03:48:48;0.10;99.90
39503;DHT22;26970;49.900;10.774;2024-03-08T03:51:13;0.10;99.90
39503;DHT22;26970;49.900;10.774;2024-03-08T03:53:40;0.00;99.90
39503;DHT22;26970;49.900;10.774;2024-03-08T03:56:06;0.10;99.90
39503;DHT22;26970;49.900;10.774;2024-03-08T03:58:32;0.10;99.90
39503;DHT22;26970;49.900;10.774;2024-03-08T04:00:58;0.10;99.90
39503;DHT22;26970;49.900;10.774;2024-03-08T04:03:23;0.10;99.90
39503;DHT22;26970;49.900;10.774;2024-03-08T04:05:49;0.10;99.90
39503;DHT22;26970;49.900;10.774;2024-03-08T04:08:15;0.20;99.90
39503;DHT22;26970;49.900;10.774;2024-03-08T04:10:40;0.20;99.90
39503;DHT22;26970;49.900;10.774;2024-03-08T04:13:09;0.20;99.90
39503;DHT22;26970;49.900;10.774;2024-03-08T04:15:37;0.20;99.90
39503;DHT22;26970;49.900;10.774;2024-03-08T04:18:03;0.20;99.90
39503;DHT22;26970;49.900;10.774;2024-03-08T04:20:29;0.10;99.90
39503;DHT22;26970;49.900;10.774;2024-03-08T04:22:55;0.20;99.90
39503;DHT22;26970;49.900;10.774;2024-03-08T04:25:21;0.30;99.90
39503;DHT22;26970;49.900;10.774;2024-03-08T04:27:47;0.30;99.90
39503;DHT22;26970;49.900;10.774;2024-03-08T04:30:14;0.30;99.90
39503;DHT22;26970;49.900;10.774;2024-03-08T04:32:40;0.30;99.90
39503;DHT22;26970;49.900;10.774;2024-03-08T04:35:07;0.30;99.90
39503;DHT22;26970;49.900;10.774;2024-03-08T04:37:33;0.30;99.90
39503;DHT22;26970;49.900;10.774;2024-03-08T04:39:59;0.30;99.90
39503;DHT22;26970;49.900;10.774;2024-03-08T04:42:28;0.40;99.90
39503;DHT22;26970;49.900;10.774;2024-03-08T04:44:55;0.40;99.90
39503;DHT22;26970;49.900;10.774;2024-03-08T04:47:20;0.30;99.90
39503;DHT22;26970;49.900;10.774;2024-03-08T04:49:46;0.30;99.90
39503;DHT22;26970;49.900;10.774;2024-03-08T04:52:12;0.20;99.90
39503;DHT22;26970;49.900;10.774;2024-03-08T04:54:37;0.20;99.90
39503;DHT22;26970;49.900;10.774;2024-03-08T04:57:03;0.20;99.90
39503;DHT22;26970;49.900;10.774;2024-03-08T04:59:30;0.20;99.90
39503;DHT22;26970;49.900;10.774;2024-03-08T05:01:55;0.10;99.90
39503;DHT22;26970;49.900;10.774;2024-03-08T05:04:21;0.10;99.90
39503;DHT22;26970;49.900;10.774;2024-03-08T05:06:48;0.10;99.90
39503;DHT22;26970;49.900;10.774;2024-03-08T05:09:14;0.10;99.90
39503;DHT22;26970;49.900;10.774;2024-03-08T05:11:41;0.10;99.90
39503;DHT22;26970;49.900;10.774;2024-03-08T05:14:07;0.10;99.90
39503;DHT22;26970;49.900;10.774;2024-03-08T05:16:32;0.10;99.90
39503;DHT22;26970;49.900;10.774;2024-03-08T05:18:58;0.10;99.90
39503;DHT22;26970;49.900;10.774;2024-03-08T05:21:23;0.30;99.90
39503;DHT22;26970;49.900;10.774;2024-03-08T05:23:50;0.00;99.90
39503;DHT22;26970;49.900;10.774;2024-03-08T05:26:16;0.00;99.90
39503;DHT22;26970;49.900;10.774;2024-03-08T05:28:41;0.00;99.90
39503;DHT22;26970;49.900;10.774;2024-03-08T05:31:07;0.00;99.90
39503;DHT22;26970;49.900;10.774;2024-03-08T05:33:33;-0.10;99.90
39503;DHT22;26970;49.900;10.774;2024-03-08T05:36:02;-0.10;99.90
39503;DHT22;26970;49.900;10.774;2024-03-08T05:38:28;-0.10;99.90
39503;DHT22;26970;49.900;10.774;2024-03-08T05:40:54;-0.10;99.90
39503;DHT22;26970;49.900;10.774;2024-03-08T05:43:20;-0.10;99.90
39503;DHT22;26970;49.900;10.774;2024-03-08T05:45:46;-0.10;99.90
39503;DHT22;26970;49.900;10.774;2024-03-08T05:48:13;-0.10;99.90
39503;DHT22;26970;49.900;10.774;2024-03-08T05:50:38;-0.10;99.90
39503;DHT22;26970;49.900;10.774;2024-03-08T05:53:04;-0.10;99.90
39503;DHT22;26970;49.900;10.774;2024-03-08T05:55:33;-0.10;99.90
39503;DHT22;26970;49.900;10.774;2024-03-08T05:58:01;-0.10;99.90
39503;DHT22;26970;49.900;10.774;2024-03-08T06:00:27;-0.10;99.90
39503;DHT22;26970;49.900;10.774;2024-03-08T06:02:53;-0.10;99.90
39503;DHT22;26970;49.900;10.774;2024-03-08T06:05:18;-0.10;99.90
39503;DHT22;26970;49.900;10.774;2024-03-08T06:07:44;-0.10;99.90
39503;DHT22;26970;49.900;10.774;2024-03-08T06:10:11;-0.10;99.90
39503;DHT22;26970;49.900;10.774;2024-03-08T06:12:38;-0.10;99.90
39503;DHT22;26970;49.900;10.774;2024-03-08T06:15:07;-0.10;99.90
39503;DHT22;26970;49.900;10.774;2024-03-08T06:17:34;0.00;99.90
39503;DHT22;26970;49.900;10.774;2024-03-08T06:20:00;0.00;99.90
39503;DHT22;26970;49.900;10.774;2024-03-08T06:22:26;0.10;99.90
39503;DHT22;26970;49.900;10.774;2024-03-08T06:24:51;0.10;99.90
39503;DHT22;26970;49.900;10.774;2024-03-08T06:27:17;0.10;99.90
39503;DHT22;26970;49.900;10.774;2024-03-08T06:29:43;0.20;99.90
39503;DHT22;26970;49.900;10.774;2024-03-08T06:32:09;0.20;99.90
39503;DHT22;26970;49.900;10.774;2024-03-08T06:34:35;0.30;99.90
39503;DHT22;26970;49.900;10.774;2024-03-08T06:37:00;0.40;99.90
39503;DHT22;26970;49.900;10.774;2024-03-08T06:39:27;0.50;99.90
39503;DHT22;26970;49.900;10.774;2024-03-08T06:41:55;0.50;99.90
39503;DHT22;26970;49.900;10.774;2024-03-08T06:44:21;0.60;99.90
39503;DHT22;26970;49.900;10.774;2024-03-08T06:46:47;0.60;99.90
39503;DHT22;26970;49.900;10.774;2024-03-08T06:49:13;0.60;99.90
39503;DHT22;26970;49.900;10.774;2024-03-08T06:51:40;0.70;99.90
39503;DHT22;26970;49.900;10.774;2024-03-08T06:54:06;0.80;99.90
39503;DHT22;26970;49.900;10.774;2024-03-08T06:56:34;0.90;99.90
39503;DHT22;26970;49.900;10.774;2024-03-08T06:59:00;0.90;99.90
39503;DHT22;26970;49.900;10.774;2024-03-08T07:01:28;1.00;99.90
39503;DHT22;26970;49.900;10.774;2024-03-08T07:03:57;1.10;99.90
39503;DHT22;26970;49.900;10.774;2024-03-08T07:06:23;1.20;99.90
39503;DHT22;26970;49.900;10.774;2024-03-08T07:08:49;1.30;99.90
39503;DHT22;26970;49.900;10.774;2024-03-08T07:11:14;1.30;99.90
39503;DHT22;26970;49.900;10.774;2024-03-08T07:13:46;1.40;99.90
39503;DHT22;26970;49.900;10.774;2024-03-08T07:16:12;1.40;99.90
39503;DHT22;26970;49.900;10.774;2024-03-08T07:18:38;1.50;99.90
39503;DHT22;26970;49.900;10.774;2024-03-08T07:21:11;1.60;99.90
39503;DHT22;26970;49.900;10.774;2024-03-08T07:23:37;1.70;99.90
39503;DHT22;26970;49.900;10.774;2024-03-08T07:26:15;1.90;99.90
39503;DHT22;26970;49.900;10.774;2024-03-08T07:28:41;2.00;99.90
39503;DHT22;26970;49.900;10.774;2024-03-08T07:31:06;2.00;99.90
39503;DHT22;26970;49.900;10.774;2024-03-08T07:33:46;2.00;99.90
39503;DHT22;26970;49.900;10.774;2024-03-08T07:36:12;2.10;99.90
39503;DHT22;26970;49.900;10.774;2024-03-08T07:38:37;2.20;99.90
39503;DHT22;26970;49.900;10.774;2024-03-08T07:41:03;2.30;99.90
39503;DHT22;26970;49.900;10.774;2024-03-08T07:43:28;2.40;99.90
39503;DHT22;26970;49.900;10.774;2024-03-08T07:45:54;2.50;99.90
39503;DHT22;26970;49.900;10.774;2024-03-08T07:48:20;2.70;99.90
39503;DHT22;26970;49.900;10.774;2024-03-08T07:50:46;2.60;99.90
39503;DHT22;26970;49.900;10.774;2024-03-08T07:53:12;2.60;99.90
39503;DHT22;26970;49.900;10.774;2024-03-08T07:55:37;2.70;99.90
39503;DHT22;26970;49.900;10.774;2024-03-08T07:58:05;2.80;99.90
39503;DHT22;26970;49.900;10.774;2024-03-08T08:00:31;2.80;99.90
39503;DHT22;26970;49.900;10.774;2024-03-08T08:02:57;2.90;99.90
39503;DHT22;26970;49.900;10.774;2024-03-08T08:05:22;3.00;99.90
39503;DHT22;26970;49.900;10.774;2024-03-08T08:07:48;3.20;99.90
39503;DHT22;26970;49.900;10.774;2024-03-08T08:10:15;3.30;99.90
39503;DHT22;26970;49.900;10.774;2024-03-08T08:12:47;3.40;99.90
39503;DHT22;26970;49.900;10.774;2024-03-08T08:15:13;3.60;99.90
39503;DHT22;26970;49.900;10.774;2024-03-08T08:17:44;3.70;99.90
39503;DHT22;26970;49.900;10.774;2024-03-08T08:20:11;3.70;99.90
39503;DHT22;26970;49.900;10.774;2024-03-08T08:22:38;3.80;99.90
39503;DHT22;26970;49.900;10.774;2024-03-08T08:25:04;3.70;99.90
39503;DHT22;26970;49.900;10.774;2024-03-08T08:27:30;3.80;99.90
39503;DHT22;26970;49.900;10.774;2024-03-08T08:29:55;3.70;99.90
39503;DHT22;26970;49.900;10.774;2024-03-08T08:32:22;3.80;99.90
39503;DHT22;26970;49.900;10.774;2024-03-08T08:34:47;3.90;99.90
39503;DHT22;26970;49.900;10.774;2024-03-08T08:37:13;4.10;99.90
39503;DHT22;26970;49.900;10.774;2024-03-08T08:39:38;4.20;99.90
39503;DHT22;26970;49.900;10.774;2024-03-08T08:42:04;4.30;99.90
39503;DHT22;26970;49.900;10.774;2024-03-08T08:44:30;4.40;99.90
39503;DHT22;26970;49.900;10.774;2024-03-08T08:46:57;4.30;99.90
39503;DHT22;26970;49.900;10.774;2024-03-08T08:49:22;4.40;99.90
39503;DHT22;26970;49.900;10.774;2024-03-08T08:51:52;4.50;99.90
39503;DHT22;26970;49.900;10.774;2024-03-08T08:54:18;4.40;99.90
39503;DHT22;26970;49.900;10.774;2024-03-08T08:56:44;4.40;99.90
39503;DHT22;26970;49.900;10.774;2024-03-08T08:59:10;4.40;99.90
39503;DHT22;26970;49.900;10.774;2024-03-08T09:01:39;4.40;99.90
39503;DHT22;26970;49.900;10.774;2024-03-08T09:04:05;4.50;99.90
39503;DHT22;26970;49.900;10.774;2024-03-08T09:06:31;4.60;99.90
39503;DHT22;26970;49.900;10.774;2024-03-08T09:08:57;4.70;99.90
39503;DHT22;26970;49.900;10.774;2024-03-08T09:11:23;4.60;99.90
39503;DHT22;26970;49.900;10.774;2024-03-08T09:13:50;4.70;99.90
39503;DHT22;26970;49.900;10.774;2024-03-08T09:16:16;4.90;99.90
39503;DHT22;26970;49.900;10.774;2024-03-08T09:18:41;5.10;99.90
39503;DHT22;26970;49.900;10.774;2024-03-08T09:21:07;5.20;99.90
39503;DHT22;26970;49.900;10.774;2024-03-08T09:23:35;5.30;99.90
39503;DHT22;26970;49.900;10.774;2024-03-08T09:26:01;5.30;99.90
39503;DHT22;26970;49.900;10.774;2024-03-08T09:28:28;5.60;99.90
39503;DHT22;26970;49.900;10.774;2024-03-08T09:30:54;5.70;99.90
39503;DHT22;26970;49.900;10.774;2024-03-08T09:33:20;5.60;99.90
39503;DHT22;26970;49.900;10.774;2024-03-08T09:35:46;5.70;99.90
39503;DHT22;26970;49.900;10.774;2024-03-08T09:38:13;5.90;99.90
39503;DHT22;26970;49.900;10.774;2024-03-08T09:40:43;6.00;99.90
39503;DHT22;26970;49.900;10.774;2024-03-08T09:43:09;6.00;99.90
39503;DHT22;26970;49.900;10.774;2024-03-08T09:45:37;6.00;99.90
39503;DHT22;26970;49.900;10.774;2024-03-08T09:48:08;5.90;99.90
39503;DHT22;26970;49.900;10.774;2024-03-08T09:50:36;5.90;99.90
39503;DHT22;26970;49.900;10.774;2024-03-08T09:53:02;6.10;99.90
39503;DHT22;26970;49.900;10.774;2024-03-08T09:55:29;6.30;99.90
39503;DHT22;26970;49.900;10.774;2024-03-08T09:58:00;6.50;99.90
39503;DHT22;26970;49.900;10.774;2024-03-08T10:00:46;6.50;99.90
39503;DHT22;26970;49.900;10.774;2024-03-08T10:03:11;6.70;99.90
39503;DHT22;26970;49.900;10.774;2024-03-08T10:05:40;6.70;99.90
39503;DHT22;26970;49.900;10.774;2024-03-08T10:08:06;6.70;99.90
39503;DHT22;26970;49.900;10.774;2024-03-08T10:10:34;6.90;99.90
39503;DHT22;26970;49.900;10.774;2024-03-08T10:13:00;6.90;99.90
39503;DHT22;26970;49.900;10.774;2024-03-08T10:15:27;7.00;99.90
39503;DHT22;26970;49.900;10.774;2024-03-08T10:17:58;6.90;99.90
39503;DHT22;26970;49.900;10.774;2024-03-08T10:20:24;6.70;99.90
39503;DHT22;26970;49.900;10.774;2024-03-08T10:22:50;6.90;99.90
39503;DHT22;26970;49.900;10.774;2024-03-08T10:25:16;6.90;99.90
39503;DHT22;26970;49.900;10.774;2024-03-08T10:27:42;7.00;99.90
39503;DHT22;26970;49.900;10.774;2024-03-08T10:30:12;7.10;99.90
39503;DHT22;26970;49.900;10.774;2024-03-08T10:32:39;6.90;99.90
39503;DHT22;26970;49.900;10.774;2024-03-08T10:35:07;6.60;99.90
39503;DHT22;26970;49.900;10.774;2024-03-08T10:37:38;6.60;99.90
39503;DHT22;26970;49.900;10.774;2024-03-08T10:40:09;6.70;99.90
39503;DHT22;26970;49.900;10.774;2024-03-08T10:42:54;6.90;99.90
39503;DHT22;26970;49.900;10.774;2024-03-08T10:45:39;7.10;99.90
39503;DHT22;26970;49.900;10.774;2024-03-08T10:48:28;7.30;99.90
39503;DHT22;26970;49.900;10.774;2024-03-08T10:50:57;7.30;99.90
39503;DHT22;26970;49.900;10.774;2024-03-08T10:53:23;7.30;99.90
39503;DHT22;26970;49.900;10.774;2024-03-08T10:55:50;7.30;99.90
39503;DHT22;26970;49.900;10.774;2024-03-08T10:58:20;7.30;99.90
39503;DHT22;26970;49.900;10.774;2024-03-08T11:00:48;7.20;99.90
39503;DHT22;26970;49.900;10.774;2024-03-08T11:03:53;7.40;99.90
39503;DHT22;26970;49.900;10.774;2024-03-08T11:06:42;7.40;99.90
39503;DHT22;26970;49.900;10.774;2024-03-08T11:09:32;7.70;99.90
39503;DHT22;26970;49.900;10.774;2024-03-08T11:12:28;7.60;99.90
39503;DHT22;26970;49.900;10.774;2024-03-08T11:15:02;7.70;99.90
39503;DHT22;26970;49.900;10.774;2024-03-08T11:20:04;7.80;99.90
39503;DHT22;26970;49.900;10.774;2024-03-08T11:22:33;7.80;99.90
39503;DHT22;26970;49.900;10.774;2024-03-08T11:25:02;7.80;99.90
39503;DHT22;26970;49.900;10.774;2024-03-08T11:27:31;7.90;99.90
39503;DHT22;26970;49.900;10.774;2024-03-08T11:30:07;8.10;99.90
39503;DHT22;26970;49.900;10.774;2024-03-08T11:32:50;8.20;99.90
39503;DHT22;26970;49.900;10.774;2024-03-08T11:35:20;8.40;99.90
39503;DHT22;26970;49.900;10.774;2024-03-08T11:37:46;8.40;99.90
39503;DHT22;26970;49.900;10.774;2024-03-08T11:40:13;8.40;99.90
39503;DHT22;26970;49.900;10.774;2024-03-08T11:42:44;8.60;99.90
39503;DHT22;26970;49.900;10.774;2024-03-08T11:45:12;8.80;99.90
39503;DHT22;26970;49.900;10.774;2024-03-08T11:47:39;9.00;99.90
39503;DHT22;26970;49.900;10.774;2024-03-08T11:50:06;9.00;99.90
39503;DHT22;26970;49.900;10.774;2024-03-08T11:52:36;8.60;99.90
39503;DHT22;26970;49.900;10.774;2024-03-08T11:55:03;8.60;99.90
39503;DHT22;26970;49.900;10.774;2024-03-08T11:57:30;8.70;99.90
39503;DHT22;26970;49.900;10.774;2024-03-08T11:59:58;8.80;99.90
39503;DHT22;26970;49.900;10.774;2024-03-08T12:02:24;8.90;99.90
39503;DHT22;26970;49.900;10.774;2024-03-08T12:05:00;9.00;99.90
39503;DHT22;26970;49.900;10.774;2024-03-08T12:07:31;8.80;99.90
39503;DHT22;26970;49.900;10.774;2024-03-08T12:10:20;8.80;99.90
39503;DHT22;26970;49.900;10.774;2024-03-08T12:12:48;8.90;99.90
39503;DHT22;26970;49.900;10.774;2024-03-08T12:15:19;8.90;99.90
39503;DHT22;26970;49.900;10.774;2024-03-08T12:17:49;8.90;99.90
39503;DHT22;26970;49.900;10.774;2024-03-08T12:20:26;9.10;99.90
39503;DHT22;26970;49.900;10.774;2024-03-08T12:22:53;9.00;99.90
39503;DHT22;26970;49.900;10.774;2024-03-08T12:25:19;9.00;99.90
39503;DHT22;26970;49.900;10.774;2024-03-08T12:27:45;8.90;99.90
39503;DHT22;26970;49.900;10.774;2024-03-08T12:30:24;8.90;99.90
39503;DHT22;26970;49.900;10.774;2024-03-08T12:33:01;9.20;99.90
39503;DHT22;26970;49.900;10.774;2024-03-08T12:35:28;9.40;99.90
39503;DHT22;26970;49.900;10.774;2024-03-08T12:37:55;9.40;99.90
39503;DHT22;26970;49.900;10.774;2024-03-08T12:40:29;9.50;99.90
39503;DHT22;26970;49.900;10.774;2024-03-08T12:42:55;9.50;99.90
39503;DHT22;26970;49.900;10.774;2024-03-08T12:45:22;9.40;99.90
39503;DHT22;26970;49.900;10.774;2024-03-08T12:47:53;9.40;99.90
39503;DHT22;26970;49.900;10.774;2024-03-08T12:50:19;9.40;99.90
39503;DHT22;26970;49.900;10.774;2024-03-08T12:52:45;9.50;99.90
39503;DHT22;26970;49.900;10.774;2024-03-08T12:55:11;9.50;99.90
39503;DHT22;26970;49.900;10.774;2024-03-08T12:57:37;9.60;99.90
39503;DHT22;26970;49.900;10.774;2024-03-08T13:00:03;9.80;99.90
39503;DHT22;26970;49.900;10.774;2024-03-08T13:02:30;9.70;99.90
39503;DHT22;26970;49.900;10.774;2024-03-08T13:04:58;9.70;99.90
39503;DHT22;26970;49.900;10.774;2024-03-08T13:07:24;9.50;99.90
39503;DHT22;26970;49.900;10.774;2024-03-08T13:09:54;9.40;99.90
39503;DHT22;26970;49.900;10.774;2024-03-08T13:12:21;9.40;99.90
39503;DHT22;26970;49.900;10.774;2024-03-08T13:14:47;9.40;99.90
39503;DHT22;26970;49.900;10.774;2024-03-08T13:17:14;9.50;99.90
39503;DHT22;26970;49.900;10.774;2024-03-08T13:19:39;9.50;99.90
39503;DHT22;26970;49.900;10.774;2024-03-08T13:22:05;9.50;99.90
39503;DHT22;26970;49.900;10.774;2024-03-08T13:24:31;9.60;99.90
39503;DHT22;26970;49.900;10.774;2024-03-08T13:26:57;9.70;99.90
39503;DHT22;26970;49.900;10.774;2024-03-08T13:29:24;9.70;99.90
39503;DHT22;26970;49.900;10.774;2024-03-08T13:31:49;9.80;99.90
39503;DHT22;26970;49.900;10.774;2024-03-08T13:34:17;9.80;99.90
39503;DHT22;26970;49.900;10.774;2024-03-08T13:36:44;9.70;99.90
39503;DHT22;26970;49.900;10.774;2024-03-08T13:39:10;9.60;99.90
39503;DHT22;26970;49.900;10.774;2024-03-08T13:41:41;9.60;99.90
39503;DHT22;26970;49.900;10.774;2024-03-08T13:44:10;9.70;99.90
39503;DHT22;26970;49.900;10.774;2024-03-08T13:46:36;9.90;99.90
39503;DHT22;26970;49.900;10.774;2024-03-08T13:49:04;10.00;99.90
39503;DHT22;26970;49.900;10.774;2024-03-08T13:51:35;10.00;99.90
39503;DHT22;26970;49.900;10.774;2024-03-08T13:54:00;10.10;99.90
39503;DHT22;26970;49.900;10.774;2024-03-08T13:56:27;10.10;99.90
39503;DHT22;26970;49.900;10.774;2024-03-08T13:58:52;10.20;99.90
39503;DHT22;26970;49.900;10.774;2024-03-08T14:01:21;10.30;99.90
39503;DHT22;26970;49.900;10.774;2024-03-08T14:03:47;10.40;99.90
39503;DHT22;26970;49.900;10.774;2024-03-08T14:06:12;10.20;99.90
39503;DHT22;26970;49.900;10.774;2024-03-08T14:08:38;10.10;99.90
39503;DHT22;26970;49.900;10.774;2024-03-08T14:11:04;10.10;99.90
39503;DHT22;26970;49.900;10.774;2024-03-08T14:13:43;10.10;99.90
39503;DHT22;26970;49.900;10.774;2024-03-08T14:16:12;10.00;99.90
39503;DHT22;26970;49.900;10.774;2024-03-08T14:18:38;10.30;99.90
39503;DHT22;26970;49.900;10.774;2024-03-08T14:21:05;10.00;99.90
39503;DHT22;26970;49.900;10.774;2024-03-08T14:23:31;10.00;99.90
39503;DHT22;26970;49.900;10.774;2024-03-08T14:25:58;10.00;99.90
39503;DHT22;26970;49.900;10.774;2024-03-08T14:28:24;10.00;99.90
39503;DHT22;26970;49.900;10.774;2024-03-08T14:30:50;9.90;99.90
39503;DHT22;26970;49.900;10.774;2024-03-08T14:33:15;10.00;99.90
39503;DHT22;26970;49.900;10.774;2024-03-08T14:35:42;9.90;99.90
39503;DHT22;26970;49.900;10.774;2024-03-08T14:38:08;9.80;99.90
39503;DHT22;26970;49.900;10.774;2024-03-08T14:40:36;9.80;99.90
39503;DHT22;26970;49.900;10.774;2024-03-08T14:43:02;9.80;99.90
39503;DHT22;26970;49.900;10.774;2024-03-08T14:45:27;9.70;99.90
39503;DHT22;26970;49.900;10.774;2024-03-08T14:47:53;9.80;99.90
39503;DHT22;26970;49.900;10.774;2024-03-08T14:50:21;9.90;99.90
39503;DHT22;26970;49.900;10.774;2024-03-08T14:52:48;9.90;99.90
39503;DHT22;26970;49.900;10.774;2024-03-08T14:55:14;9.90;99.90
39503;DHT22;26970;49.900;10.774;2024-03-08T14:57:41;9.80;99.90
39503;DHT22;26970;49.900;10.774;2024-03-08T15:00:07;9.80;99.90
39503;DHT22;26970;49.900;10.774;2024-03-08T15:02:41;9.80;99.90
39503;DHT22;26970;49.900;10.774;2024-03-08T15:05:07;9.80;99.90
39503;DHT22;26970;49.900;10.774;2024-03-08T15:07:39;9.90;99.90
39503;DHT22;26970;49.900;10.774;2024-03-08T15:10:07;9.80;99.90
39503;DHT22;26970;49.900;10.774;2024-03-08T15:12:37;9.70;99.90
39503;DHT22;26970;49.900;10.774;2024-03-08T15:15:05;9.60;99.90
39503;DHT22;26970;49.900;10.774;2024-03-08T15:17:34;9.60;99.90
39503;DHT22;26970;49.900;10.774;2024-03-08T15:20:00;9.60;99.90
39503;DHT22;26970;49.900;10.774;2024-03-08T15:22:26;9.60;99.90
39503;DHT22;26970;49.900;10.774;2024-03-08T15:24:52;9.50;99.90
39503;DHT22;26970;49.900;10.774;2024-03-08T15:27:18;9.40;99.90
39503;DHT22;26970;49.900;10.774;2024-03-08T15:29:44;9.40;99.90
39503;DHT22;26970;49.900;10.774;2024-03-08T15:32:14;9.40;99.90
39503;DHT22;26970;49.900;10.774;2024-03-08T15:34:45;9.40;99.90
39503;DHT22;26970;49.900;10.774;2024-03-08T15:37:11;9.30;99.90